Terminal Aerodrome Forecast
Issued by NWS Omaha/Valley, NE

Home | Current Version | Previous Version | Text Only | Print | Product List | Glossary On
Versions: 1 2 3 4 5 6 7 8 9 10 11 12 13 14 15 16 17 18
000
FTUS43 KOAX 242325
TAFOMA
TAF
KOMA 242325Z 2500/2524 13003KT P6SM SCT060
     FM251500 16014KT P6SM SCT150
     FM251700 16015G20KT P6SM BKN150
     FM252100 17011KT P6SM BKN050=

USA.gov is the U.S. government's official web portal to all federal, state and local government web resources and services.